Main page
Satellite images 15-day forecastsClimateMarine weather Cyclones Lightning AirportsFAQ Newsletter About
Weather : Europe Africa North America South America Asia Australia-Oceania Others
Languages Contact

Baia Mare, Romania

latitude: 47-40N, longitude: 023-35E, elevation: 218 m


METAR: LRBM 010730Z VRB02KT CAVOK 26/17 Q1011
short-TAF: LRBM 010200Z 0103/0112 VRB04KT CAVOK
long-TAF: out of date (300 hours)

Time: 10:45 (07:45 UTC)

Current weather observation

The report was made 15 minutes ago, at 07:30 UTC  
Wind 02 kt from variable directions
Temperature 26°C
Humidity 58%
Pressure 1011 hPa
Visibility 10 km or more
no clouds below 1500 m and no cumulonimbus

Change units

Forecast

The report was made 5 hours and 13 minutes ago, at 02:32 UTC  
Forecast valid from 01 at 03 UTC to 01 at 12 UTC
Wind 04 kt from variable directions
Visibility 10 km or more
no clouds below 1500 m and no cumulonimbus
The information on this site is subject to a disclaimer
Weather : Europe Africa North America South America Asia Australia-Oceania Others
Satellite images 15-day forecastsClimateMarine weather Cyclones Lightning AirportsFAQ Languages Contact Newsletter About